Time,TemperatureF,DewpointF,PressureIn,WindDirection,WindDirectionDegrees,WindSpeedMPH,WindSpeedGustMPH,Humidity,HourlyPrecipIn,Conditions,Clouds,dailyrainin,SolarRadiationWatts/m^2,SoftwareType,DateUTC
2013-02-10 00:01:00,17.0,12.0,-100.00,WSW,240,2.0,5.0,79,-99.99,,,-99.99,0.000000,,2013-02-10 08:01:00,
2013-02-10 00:11:00,17.0,12.0,-100.00,West,266,4.0,6.0,80,-99.99,,,-99.99,0.000000,,2013-02-10 08:11:00,
2013-02-10 00:21:00,17.0,12.0,-100.00,West,267,6.0,7.0,80,-99.99,,,-99.99,0.000000,,2013-02-10 08:21:00,
2013-02-10 00:32:00,17.0,12.0,-100.00,West,267,6.0,7.0,80,-99.99,,,-99.99,0.000000,,2013-02-10 08:32:00,
2013-02-10 00:43:00,18.0,12.0,-100.00,West,280,3.0,5.0,79,-99.99,,,-99.99,0.000000,,2013-02-10 08:43:00,
2013-02-10 00:52:00,18.0,13.0,-100.00,WNW,294,1.0,2.0,78,-99.99,,,-99.99,0.000000,,2013-02-10 08:52:00,
2013-02-10 01:02:00,17.0,12.0,-100.00,ENE,74,2.0,3.0,80,-99.99,,,-99.99,0.000000,,2013-02-10 09:02:00,
2013-02-10 01:11:00,17.0,12.0,-100.00,East,81,1.0,2.0,81,-99.99,,,-99.99,0.000000,,2013-02-10 09:11:00,
2013-02-10 01:21:00,18.0,13.0,-100.00,ENE,61,1.0,3.0,80,-99.99,,,-99.99,0.000000,,2013-02-10 09:21:00,
2013-02-10 01:31:00,18.0,13.0,-100.00,ENE,61,1.0,3.0,80,-99.99,,,-99.99,0.000000,,2013-02-10 09:31:00,
2013-02-10 01:41:00,18.0,14.0,-100.00,NE,39,1.0,5.0,82,-99.99,,,-99.99,0.000000,,2013-02-10 09:41:00,
2013-02-10 01:51:00,18.0,14.0,-100.00,NE,39,1.0,5.0,82,-99.99,,,-99.99,0.000000,,2013-02-10 09:51:00,
2013-02-10 02:01:00,19.0,15.0,-100.00,North,-999,0.0,0.0,83,-99.99,,,-99.99,0.000000,,2013-02-10 10:01:00,
2013-02-10 02:11:00,19.0,14.0,-100.00,WNW,288,1.0,3.0,83,-99.99,,,-99.99,0.000000,,2013-02-10 10:11:00,
2013-02-10 02:21:00,19.0,14.0,-100.00,WNW,288,1.0,3.0,83,-99.99,,,-99.99,0.000000,,2013-02-10 10:21:00,
2013-02-10 02:31:00,18.0,14.0,-100.00,West,271,3.0,5.0,84,-99.99,,,-99.99,0.000000,,2013-02-10 10:31:00,
2013-02-10 02:40:00,19.0,15.0,-100.00,North,-999,0.0,0.0,84,-99.99,,,-99.99,0.000000,,2013-02-10 10:40:00,
2013-02-10 02:41:00,18.0,14.0,-100.00,West,275,4.0,6.0,85,-99.99,,,-99.99,0.000000,,2013-02-10 10:41:00,
2013-02-10 02:51:00,18.0,14.0,-100.00,NNE,18,0.0,2.0,86,-99.99,,,-99.99,0.000000,,2013-02-10 10:51:00,
2013-02-10 03:01:00,18.0,14.0,-100.00,NNE,18,0.0,2.0,86,-99.99,,,-99.99,0.000000,,2013-02-10 11:01:00,
2013-02-10 03:11:00,18.0,15.0,-100.00,ENE,70,0.0,2.0,86,-99.99,,,-99.99,0.000000,,2013-02-10 11:11:00,
2013-02-10 03:20:00,19.0,16.0,-100.00,North,2,1.0,3.0,87,-99.99,,,-99.99,0.000000,,2013-02-10 11:20:00,
2013-02-10 03:21:00,19.0,15.0,-100.00,North,-999,0.0,0.0,84,-99.99,,,-99.99,0.000000,,2013-02-10 11:21:00,
2013-02-10 03:32:00,19.0,15.0,-100.00,North,-999,0.0,0.0,84,-99.99,,,-99.99,0.000000,,2013-02-10 11:32:00,
2013-02-10 03:52:00,19.0,16.0,-100.00,North,10,1.0,4.0,86,-99.99,,,-99.99,0.000000,,2013-02-10 11:52:00,
2013-02-10 04:01:00,19.0,15.0,-100.00,NNE,26,2.0,3.0,86,-99.99,,,-99.99,0.000000,,2013-02-10 12:01:00,
2013-02-10 04:12:00,19.0,16.0,-100.00,North,2,1.0,3.0,87,-99.99,,,-99.99,0.000000,,2013-02-10 12:12:00,
2013-02-10 04:30:00,20.0,18.0,-100.00,NE,53,2.0,3.0,90,-99.99,,,-99.99,0.000000,,2013-02-10 12:30:00,
2013-02-10 04:41:00,20.0,17.0,-100.00,NNE,29,1.0,2.0,90,-99.99,,,-99.99,0.000000,,2013-02-10 12:41:00,
2013-02-10 04:52:00,20.0,18.0,-100.00,North,359,1.0,3.0,90,-99.99,,,-99.99,0.000000,,2013-02-10 12:52:00,
2013-02-10 05:02:00,20.0,18.0,-100.00,North,359,1.0,3.0,90,-99.99,,,-99.99,0.000000,,2013-02-10 13:02:00,
2013-02-10 05:11:00,20.0,18.0,-100.00,NE,53,2.0,3.0,90,-99.99,,,-99.99,0.000000,,2013-02-10 13:11:00,
2013-02-10 05:21:00,20.0,18.0,-100.00,NE,53,2.0,3.0,90,-99.99,,,-99.99,0.000000,,2013-02-10 13:21:00,
2013-02-10 05:41:00,20.0,18.0,-100.00,WNW,284,3.0,5.0,92,-99.99,,,-99.99,0.000000,,2013-02-10 13:41:00,
2013-02-10 05:51:00,20.0,18.0,-100.00,WNW,284,3.0,5.0,92,-99.99,,,-99.99,0.000000,,2013-02-10 13:51:00,
2013-02-10 06:02:00,19.0,17.0,-100.00,West,279,3.0,5.0,92,-99.99,,,-99.99,0.000000,,2013-02-10 14:02:00,
2013-02-10 06:11:00,18.0,16.0,-100.00,West,263,1.0,3.0,92,-99.99,,,-99.99,0.000000,,2013-02-10 14:11:00,
2013-02-10 06:21:00,18.0,16.0,-100.00,NE,41,0.0,2.0,93,-99.99,,,-99.99,0.000000,,2013-02-10 14:21:00,
2013-02-10 06:31:00,18.0,16.0,-100.00,NE,41,0.0,2.0,93,-99.99,,,-99.99,0.000000,,2013-02-10 14:31:00,
2013-02-10 06:41:00,18.0,16.0,-100.00,North,-999,0.0,0.0,93,-99.99,,,-99.99,0.000000,,2013-02-10 14:41:00,
2013-02-10 06:52:00,18.0,17.0,-100.00,West,259,1.0,3.0,93,-99.99,,,-99.99,0.000000,,2013-02-10 14:52:00,
2013-02-10 07:00:00,19.0,18.0,-100.00,WNW,289,1.0,4.0,93,-99.99,,,-99.99,7.000000,,2013-02-10 15:00:00,
2013-02-10 07:01:00,19.0,17.0,-100.00,West,260,2.0,3.0,93,-99.99,,,-99.99,0.000000,,2013-02-10 15:01:00,
2013-02-10 07:11:00,18.0,17.0,-100.00,NE,35,1.0,3.0,92,-99.99,,,-99.99,0.000000,,2013-02-10 15:11:00,
2013-02-10 07:21:00,18.0,17.0,-100.00,NE,50,2.0,4.0,93,-99.99,,,-99.99,3.000000,,2013-02-10 15:21:00,
2013-02-10 07:31:00,18.0,17.0,-100.00,NE,50,2.0,4.0,93,-99.99,,,-99.99,3.000000,,2013-02-10 15:31:00,
2013-02-10 07:41:00,19.0,18.0,-100.00,WNW,289,1.0,4.0,93,-99.99,,,-99.99,7.000000,,2013-02-10 15:41:00,
2013-02-10 07:51:00,19.0,18.0,-100.00,WNW,289,1.0,4.0,93,-99.99,,,-99.99,7.000000,,2013-02-10 15:51:00,
2013-02-10 08:11:00,17.0,15.0,-100.00,ENE,64,1.0,2.0,91,-99.99,,,-99.99,33.000000,,2013-02-10 16:11:00,
2013-02-10 08:21:00,17.0,15.0,-100.00,ENE,64,1.0,2.0,91,-99.99,,,-99.99,33.000000,,2013-02-10 16:21:00,
2013-02-10 08:32:00,18.0,16.0,-100.00,NW,319,0.0,1.0,91,-99.99,,,-99.99,32.000000,,2013-02-10 16:32:00,
2013-02-10 08:42:00,20.0,18.0,-100.00,WNW,291,0.0,1.0,90,-99.99,,,-99.99,73.000000,,2013-02-10 16:42:00,
2013-02-10 08:51:00,20.0,17.0,-100.00,ENE,74,0.0,2.0,86,-99.99,,,-99.99,113.000000,,2013-02-10 16:51:00,
2013-02-10 09:01:00,21.0,16.0,-100.00,North,-999,0.0,0.0,82,-99.99,,,-99.99,85.000000,,2013-02-10 17:01:00,
2013-02-10 09:11:00,21.0,17.0,-100.00,NNE,18,0.0,1.0,83,-99.99,,,-99.99,85.000000,,2013-02-10 17:11:00,
2013-02-10 09:21:00,22.0,17.0,-100.00,North,352,1.0,3.0,83,-99.99,,,-99.99,118.000000,,2013-02-10 17:21:00,
2013-02-10 09:32:00,21.0,17.0,-100.00,NNW,333,2.0,3.0,84,-99.99,,,-99.99,117.000000,,2013-02-10 17:32:00,
2013-02-10 09:42:00,21.0,18.0,-100.00,NW,307,5.0,6.0,86,-99.99,,,-99.99,143.000000,,2013-02-10 17:42:00,
2013-02-10 09:52:00,22.0,19.0,-100.00,NW,309,5.0,6.0,86,-99.99,,,-99.99,170.000000,,2013-02-10 17:52:00,
2013-02-10 10:01:00,22.0,19.0,-100.00,NW,309,5.0,6.0,86,-99.99,,,-99.99,170.000000,,2013-02-10 18:01:00,
2013-02-10 10:11:00,24.0,20.0,-100.00,NW,313,4.0,5.0,83,-99.99,,,-99.99,229.000000,,2013-02-10 18:11:00,
2013-02-10 10:21:00,24.0,19.0,-100.00,NNW,332,4.0,6.0,83,-99.99,,,-99.99,228.000000,,2013-02-10 18:21:00,
2013-02-10 10:31:00,24.0,19.0,-100.00,NNW,332,4.0,6.0,83,-99.99,,,-99.99,228.000000,,2013-02-10 18:31:00,
2013-02-10 10:42:00,24.0,19.0,-100.00,NW,324,7.0,12.0,83,-99.99,,,-99.99,242.000000,,2013-02-10 18:42:00,
2013-02-10 10:52:00,23.0,19.0,-100.00,NNW,330,8.0,11.0,84,-99.99,,,-99.99,221.000000,,2013-02-10 18:52:00,
2013-02-10 11:01:00,23.0,19.0,-100.00,NNW,331,11.0,14.0,85,-99.99,,,-99.99,230.000000,,2013-02-10 19:01:00,
2013-02-10 11:11:00,23.0,19.0,-100.00,NNW,333,12.0,15.0,86,-99.99,,,-99.99,282.000000,,2013-02-10 19:11:00,
2013-02-10 11:21:00,23.0,19.0,-100.00,NNW,338,12.0,16.0,84,-99.99,,,-99.99,405.000000,,2013-02-10 19:21:00,
2013-02-10 11:32:00,23.0,19.0,-100.00,NNW,339,14.0,18.0,84,-99.99,,,-99.99,646.000000,,2013-02-10 19:32:00,
2013-02-10 11:42:00,23.0,19.0,-100.00,NNW,335,15.0,21.0,84,-99.99,,,-99.99,631.000000,,2013-02-10 19:42:00,
2013-02-10 11:51:00,23.0,19.0,-100.00,NNW,335,13.0,17.0,84,-99.99,,,-99.99,610.000000,,2013-02-10 19:51:00,
2013-02-10 12:01:00,23.0,19.0,-100.00,NNW,335,13.0,17.0,84,-99.99,,,-99.99,610.000000,,2013-02-10 20:01:00,
2013-02-10 12:11:00,23.0,19.0,-100.00,NNW,340,12.0,15.0,84,-99.99,,,-99.99,705.000000,,2013-02-10 20:11:00,
2013-02-10 12:21:00,23.0,20.0,-100.00,NNW,336,16.0,23.0,87,-99.99,,,-99.99,632.000000,,2013-02-10 20:21:00,
2013-02-10 12:32:00,23.0,20.0,-100.00,NNW,336,16.0,23.0,87,-99.99,,,-99.99,632.000000,,2013-02-10 20:32:00,
2013-02-10 12:42:00,23.0,20.0,-100.00,NNW,338,16.0,20.0,88,-99.99,,,-99.99,683.000000,,2013-02-10 20:42:00,
2013-02-10 12:52:00,23.0,20.0,-100.00,NNW,338,16.0,20.0,88,-99.99,,,-99.99,683.000000,,2013-02-10 20:52:00,
2013-02-10 13:02:00,23.0,21.0,-100.00,NNW,336,16.0,20.0,89,-99.99,,,-99.99,575.000000,,2013-02-10 21:02:00,
2013-02-10 13:11:00,23.0,21.0,-100.00,NNW,333,16.0,20.0,90,-99.99,,,-99.99,608.000000,,2013-02-10 21:11:00,
2013-02-10 13:21:00,23.0,21.0,-100.00,NNW,336,19.0,26.0,90,-99.99,,,-99.99,613.000000,,2013-02-10 21:21:00,
2013-02-10 13:32:00,23.0,21.0,-100.00,NNW,336,19.0,26.0,90,-99.99,,,-99.99,613.000000,,2013-02-10 21:32:00,
2013-02-10 13:42:00,23.0,21.0,-100.00,NNW,337,19.0,24.0,91,-99.99,,,-99.99,436.000000,,2013-02-10 21:42:00,
2013-02-10 13:51:00,23.0,21.0,-100.00,NNW,333,21.0,26.0,92,-99.99,,,-99.99,323.000000,,2013-02-10 21:51:00,
2013-02-10 14:01:00,23.0,21.0,-100.00,NNW,330,21.0,27.0,93,-99.99,,,-99.99,338.000000,,2013-02-10 22:01:00,
2013-02-10 14:11:00,23.0,21.0,-100.00,NNW,331,21.0,25.0,93,-99.99,,,-99.99,320.000000,,2013-02-10 22:11:00,
2013-02-10 14:21:00,23.0,21.0,-100.00,NNW,334,19.0,25.0,92,-99.99,,,-99.99,339.000000,,2013-02-10 22:21:00,
2013-02-10 14:32:00,23.0,21.0,-100.00,NNW,334,19.0,25.0,92,-99.99,,,-99.99,339.000000,,2013-02-10 22:32:00,
2013-02-10 14:42:00,23.0,20.0,-100.00,NNW,335,21.0,26.0,91,-99.99,,,-99.99,329.000000,,2013-02-10 22:42:00,
2013-02-10 14:52:00,22.0,21.0,-100.00,NNW,332,21.0,25.0,93,-99.99,,,-99.99,264.000000,,2013-02-10 22:52:00,
2013-02-10 15:01:00,22.0,21.0,-100.00,NNW,329,22.0,26.0,93,-99.99,,,-99.99,232.000000,,2013-02-10 23:01:00,
2013-02-10 15:11:00,22.0,20.0,-100.00,NW,324,22.0,26.0,93,-99.99,,,-99.99,238.000000,,2013-02-10 23:11:00,
2013-02-10 15:21:00,22.0,20.0,-100.00,NNW,328,21.0,26.0,93,-99.99,,,-99.99,245.000000,,2013-02-10 23:21:00,
2013-02-10 15:32:00,22.0,20.0,-100.00,NNW,330,22.0,26.0,92,-99.99,,,-99.99,245.000000,,2013-02-10 23:32:00,
2013-02-10 15:42:00,22.0,20.0,-100.00,NNW,335,19.0,24.0,90,-99.99,,,-99.99,229.000000,,2013-02-10 23:42:00,
2013-02-10 15:52:00,22.0,19.0,-100.00,NNW,341,17.0,23.0,89,-99.99,,,-99.99,219.000000,,2013-02-10 23:52:00,
2013-02-10 16:01:00,22.0,20.0,-100.00,NNW,340,16.0,20.0,90,-99.99,,,-99.99,205.000000,,2013-02-11 00:01:00,
2013-02-10 16:11:00,22.0,19.0,-100.00,NNW,342,14.0,19.0,89,-99.99,,,-99.99,189.000000,,2013-02-11 00:11:00,
2013-02-10 16:22:00,22.0,19.0,-100.00,NNW,341,15.0,21.0,88,-99.99,,,-99.99,163.000000,,2013-02-11 00:22:00,
2013-02-10 16:32:00,22.0,19.0,-100.00,NNW,341,15.0,21.0,88,-99.99,,,-99.99,163.000000,,2013-02-11 00:32:00,
2013-02-10 16:42:00,22.0,19.0,-100.00,NNW,344,13.0,18.0,89,-99.99,,,-99.99,124.000000,,2013-02-11 00:42:00,
2013-02-10 16:51:00,22.0,19.0,-100.00,NNW,343,12.0,17.0,89,-99.99,,,-99.99,113.000000,,2013-02-11 00:51:00,
2013-02-10 17:01:00,22.0,19.0,-100.00,NNW,343,12.0,17.0,89,-99.99,,,-99.99,113.000000,,2013-02-11 01:01:00,
2013-02-10 17:11:00,21.0,18.0,-100.00,NNW,338,13.0,18.0,87,-99.99,,,-99.99,71.000000,,2013-02-11 01:11:00,
2013-02-10 17:21:00,21.0,18.0,-100.00,NNW,343,11.0,16.0,88,-99.99,,,-99.99,56.000000,,2013-02-11 01:21:00,
2013-02-10 17:32:00,21.0,18.0,-100.00,NNW,343,11.0,16.0,88,-99.99,,,-99.99,56.000000,,2013-02-11 01:32:00,
2013-02-10 17:41:00,20.0,17.0,-100.00,NNW,339,11.0,14.0,88,-99.99,,,-99.99,26.000000,,2013-02-11 01:41:00,
2013-02-10 17:52:00,20.0,17.0,-100.00,NNW,339,11.0,14.0,88,-99.99,,,-99.99,26.000000,,2013-02-11 01:52:00,
2013-02-10 18:01:00,19.0,17.0,-100.00,NNW,341,11.0,16.0,90,-99.99,,,-99.99,13.000000,,2013-02-11 02:01:00,
2013-02-10 18:11:00,19.0,17.0,-100.00,NNW,334,15.0,19.0,93,-99.99,,,-99.99,0.000000,,2013-02-11 02:11:00,
2013-02-10 18:21:00,19.0,18.0,-100.00,NNW,335,17.0,22.0,93,-99.99,,,-99.99,0.000000,,2013-02-11 02:21:00,
2013-02-10 18:31:00,19.0,18.0,-100.00,NNW,335,17.0,22.0,93,-99.99,,,-99.99,0.000000,,2013-02-11 02:31:00,
2013-02-10 18:42:00,19.0,17.0,-100.00,NNW,341,14.0,19.0,94,-99.99,,,-99.99,0.000000,,2013-02-11 02:42:00,
2013-02-10 18:52:00,18.0,17.0,-100.00,NNW,331,14.0,17.0,94,-99.99,,,-99.99,0.000000,,2013-02-11 02:52:00,
2013-02-10 19:01:00,18.0,16.0,-100.00,NNW,330,15.0,19.0,94,-99.99,,,-99.99,0.000000,,2013-02-11 03:01:00,
2013-02-10 19:11:00,18.0,16.0,-100.00,NNW,337,15.0,19.0,93,-99.99,,,-99.99,0.000000,,2013-02-11 03:11:00,
2013-02-10 19:21:00,18.0,16.0,-100.00,NNW,341,12.0,17.0,93,-99.99,,,-99.99,0.000000,,2013-02-11 03:21:00,
2013-02-10 19:31:00,17.0,15.0,-100.00,NNW,346,12.0,15.0,93,-99.99,,,-99.99,0.000000,,2013-02-11 03:31:00,
2013-02-10 19:41:00,17.0,15.0,-100.00,NNW,343,11.0,15.0,93,-99.99,,,-99.99,0.000000,,2013-02-11 03:41:00,
2013-02-10 19:52:00,16.0,14.0,-100.00,NNW,343,10.0,14.0,92,-99.99,,,-99.99,0.000000,,2013-02-11 03:52:00,
2013-02-10 20:01:00,16.0,14.0,-100.00,North,352,11.0,14.0,92,-99.99,,,-99.99,0.000000,,2013-02-11 04:01:00,
2013-02-10 20:11:00,15.0,13.0,-100.00,North,353,10.0,13.0,93,-99.99,,,-99.99,0.000000,,2013-02-11 04:11:00,
2013-02-10 20:21:00,14.0,12.0,-100.00,NNW,348,10.0,13.0,92,-99.99,,,-99.99,0.000000,,2013-02-11 04:21:00,
2013-02-10 20:31:00,14.0,12.0,-100.00,NNW,348,10.0,13.0,92,-99.99,,,-99.99,0.000000,,2013-02-11 04:31:00,
2013-02-10 20:42:00,14.0,13.0,-100.00,North,4,10.0,14.0,92,-99.99,,,-99.99,0.000000,,2013-02-11 04:42:00,
2013-02-10 20:51:00,14.0,12.0,-100.00,North,1,9.0,12.0,92,-99.99,,,-99.99,0.000000,,2013-02-11 04:51:00,
2013-02-10 21:01:00,13.0,11.0,-100.00,North,1,10.0,12.0,92,-99.99,,,-99.99,0.000000,,2013-02-11 05:01:00,
2013-02-10 21:11:00,12.0,10.0,-100.00,North,8,8.0,10.0,92,-99.99,,,-99.99,0.000000,,2013-02-11 05:11:00,
2013-02-10 21:22:00,11.0,9.0,-100.00,NNE,16,8.0,10.0,92,-99.99,,,-99.99,0.000000,,2013-02-11 05:22:00,
2013-02-10 21:31:00,11.0,9.0,-100.00,NNE,16,8.0,10.0,92,-99.99,,,-99.99,0.000000,,2013-02-11 05:31:00,
2013-02-10 21:42:00,12.0,10.0,-100.00,North,7,7.0,9.0,92,-99.99,,,-99.99,0.000000,,2013-02-11 05:42:00,
2013-02-10 21:52:00,12.0,10.0,-100.00,North,7,7.0,9.0,92,-99.99,,,-99.99,0.000000,,2013-02-11 05:52:00,
2013-02-10 22:01:00,10.0,8.0,-100.00,NNE,15,6.0,8.0,92,-99.99,,,-99.99,0.000000,,2013-02-11 06:01:00,
2013-02-10 22:11:00,9.0,6.0,-100.00,NE,55,1.0,5.0,90,-99.99,,,-99.99,0.000000,,2013-02-11 06:11:00,
2013-02-10 22:21:00,8.0,6.0,-100.00,SSW,201,1.0,3.0,91,-99.99,,,-99.99,0.000000,,2013-02-11 06:21:00,
2013-02-10 22:32:00,8.0,6.0,-100.00,SSW,201,1.0,3.0,91,-99.99,,,-99.99,0.000000,,2013-02-11 06:32:00,
2013-02-10 22:42:00,9.0,7.0,-100.00,WSW,250,1.0,4.0,92,-99.99,,,-99.99,0.000000,,2013-02-11 06:42:00,
2013-02-10 22:51:00,7.0,5.0,-100.00,WNW,297,5.0,6.0,90,-99.99,,,-99.99,0.000000,,2013-02-11 06:51:00,
2013-02-10 23:01:00,5.0,3.0,-100.00,NW,305,6.0,7.0,90,-99.99,,,-99.99,0.000000,,2013-02-11 07:01:00,
2013-02-10 23:11:00,5.0,3.0,-100.00,NW,305,6.0,7.0,90,-99.99,,,-99.99,0.000000,,2013-02-11 07:11:00,
2013-02-10 23:21:00,6.0,4.0,-100.00,NNW,328,2.0,6.0,90,-99.99,,,-99.99,0.000000,,2013-02-11 07:21:00,
2013-02-10 23:32:00,5.0,2.0,-100.00,WNW,302,2.0,3.0,89,-99.99,,,-99.99,0.000000,,2013-02-11 07:32:00,
2013-02-10 23:41:00,3.0,-1.0,-100.00,SE,128,2.0,4.0,86,-99.99,,,-99.99,0.000000,,2013-02-11 07:41:00,
2013-02-10 23:51:00,3.0,-1.0,-100.00,SE,128,2.0,4.0,86,-99.99,,,-99.99,0.000000,,2013-02-11 07:51:00,